Time;durP1;ratioP1;P1;durP2;ratioP2;P2;SDS_P1;SDS_P2;PMS_P1;PMS_P2;Temp;Humidity;BMP_temperature;BMP_pressure;BME280_temperature;BME280_humidity;BME280_pressure;Samples;Min_cycle;Max_cycle;Signal;HPM_P1;HPM_P2
2021/07/06 00:01:19;;;;;;;9.15;1.58;;;;;;;17.24;76.26;98883.84;4975530;28;20446;-67
2021/07/06 00:03:47;;;;;;;3.22;1.45;;;;;;;17.24;76.25;98872.53;4974282;28;20047;-67
2021/07/06 00:06:13;;;;;;;2.33;1.50;;;;;;;17.24;76.24;98857.66;4975780;28;20142;-67
2021/07/06 00:08:38;;;;;;;1.77;1.40;;;;;;;17.24;76.32;98849.81;4975436;28;20499;-66
2021/07/06 00:11:04;;;;;;;2.85;1.48;;;;;;;17.25;76.22;98850.69;4974089;28;20038;-66
2021/07/06 00:13:29;;;;;;;2.33;1.30;;;;;;;17.25;76.19;98843.69;4975556;28;20043;-66
2021/07/06 00:15:56;;;;;;;4.07;1.65;;;;;;;17.26;76.23;98837.53;4975675;28;20442;-66
2021/07/06 00:18:21;;;;;;;5.13;2.00;;;;;;;17.25;76.25;98841.06;4975096;28;20039;-66
2021/07/06 00:20:50;;;;;;;2.00;1.73;;;;;;;17.26;76.31;98842.78;4975280;28;20479;-67
2021/07/06 00:23:15;;;;;;;2.97;1.70;;;;;;;17.26;76.33;98840.16;4973996;28;20027;-67
2021/07/06 00:25:44;;;;;;;2.30;1.35;;;;;;;17.26;76.23;98828.84;4973780;28;20039;-66
2021/07/06 00:28:09;;;;;;;3.45;1.20;;;;;;;17.25;76.30;98824.50;4975751;28;20031;-66
2021/07/06 00:30:37;;;;;;;2.72;1.70;;;;;;;17.24;76.20;98825.41;4975328;28;20039;-67
2021/07/06 00:33:08;;;;;;;1.98;1.40;;;;;;;17.25;76.19;98819.28;4975202;28;20478;-67
2021/07/06 00:35:34;;;;;;;1.38;1.23;;;;;;;17.25;76.26;98814.03;4973763;28;20042;-67
2021/07/06 00:37:59;;;;;;;1.88;1.30;;;;;;;17.26;76.18;98805.28;4974372;28;20035;-67
2021/07/06 00:40:25;;;;;;;2.25;1.60;;;;;;;17.26;76.30;98805.28;4974870;28;20043;-66
2021/07/06 00:42:52;;;;;;;2.85;1.50;;;;;;;17.26;76.03;98819.22;4973726;28;20094;-67
2021/07/06 00:45:18;;;;;;;1.95;1.38;;;;;;;17.26;76.25;98818.38;4975086;28;20058;-67
2021/07/06 00:47:46;;;;;;;2.83;1.20;;;;;;;17.25;76.21;98817.50;4975017;28;20431;-66
2021/07/06 00:50:22;;;;;;;3.67;1.40;;;;;;;17.25;76.16;98800.94;4973722;28;20045;-66
2021/07/06 00:52:48;;;;;;;1.63;1.40;;;;;;;17.25;76.14;98801.78;4974977;28;20042;-66
2021/07/06 00:55:14;;;;;;;2.47;1.52;;;;;;;17.25;76.39;98799.16;4974917;28;20134;-66
2021/07/06 00:57:40;;;;;;;2.72;1.30;;;;;;;17.26;76.32;98786.94;4975040;28;20114;-66
2021/07/06 01:00:15;;;;;;;3.00;1.35;;;;;;;17.26;76.32;98784.34;4975005;28;20031;-67
2021/07/06 01:02:43;;;;;;;1.88;1.40;;;;;;;17.25;76.48;98775.59;4974300;28;20134;-67
2021/07/06 01:05:13;;;;;;;3.92;1.70;;;;;;;17.26;76.12;98776.47;4974877;28;20101;-66
2021/07/06 01:07:39;;;;;;;3.20;1.83;;;;;;;17.24;76.35;98766.03;4974255;28;20085;-66
2021/07/06 01:10:06;;;;;;;1.83;1.20;;;;;;;17.23;76.24;98746.00;4974547;28;20031;-66
2021/07/06 01:12:32;;;;;;;3.47;1.80;;;;;;;17.24;76.20;98734.63;4973634;28;20045;-66
2021/07/06 01:15:06;;;;;;;5.15;2.10;;;;;;;17.25;76.33;98748.59;4974548;28;20035;-66
2021/07/06 01:17:34;;;;;;;3.78;1.85;;;;;;;17.24;76.35;98757.34;4973333;28;20422;-66
2021/07/06 01:20:08;;;;;;;4.20;1.77;;;;;;;17.24;76.24;98752.09;4973473;28;20042;-66
2021/07/06 01:22:33;;;;;;;2.78;1.73;;;;;;;17.24;76.30;98741.63;4974639;28;20047;-66
2021/07/06 01:25:02;;;;;;;2.00;1.70;;;;;;;17.24;76.16;98757.34;4974614;28;20478;-66
2021/07/06 01:27:30;;;;;;;2.67;1.67;;;;;;;17.24;76.24;98759.97;4974602;28;20043;-66
2021/07/06 01:29:56;;;;;;;2.75;1.75;;;;;;;17.23;76.22;98766.94;4974752;28;20034;-67
2021/07/06 01:32:22;;;;;;;3.72;1.50;;;;;;;17.22;76.27;98762.59;4974568;28;20046;-66
2021/07/06 01:34:50;;;;;;;3.38;1.50;;;;;;;17.23;76.33;98760.84;4973228;28;20061;-66
2021/07/06 01:37:19;;;;;;;3.25;1.50;;;;;;;17.23;76.27;98747.78;4973324;28;20070;-66
2021/07/06 01:39:50;;;;;;;2.33;2.08;;;;;;;17.23;76.26;98747.78;4974072;28;20035;-67
2021/07/06 01:42:20;;;;;;;2.95;1.65;;;;;;;17.22;76.22;98746.06;4974739;28;20042;-67
2021/07/06 01:44:46;;;;;;;2.35;1.58;;;;;;;17.21;76.22;98739.94;4974178;28;20042;-66
2021/07/06 01:47:12;;;;;;;2.45;1.75;;;;;;;17.23;76.22;98739.91;4973550;28;20053;-67
2021/07/06 01:49:38;;;;;;;1.70;1.35;;;;;;;17.22;76.15;98732.97;4960855;28;20484;-66
2021/07/06 01:52:04;;;;;;;1.83;1.30;;;;;;;17.22;76.10;98736.44;4978297;28;20447;-66
2021/07/06 01:54:30;;;;;;;2.22;1.40;;;;;;;17.23;76.35;98739.91;4978372;28;20043;-66
2021/07/06 01:56:55;;;;;;;3.33;1.50;;;;;;;17.22;76.20;98749.50;4978332;28;20493;-66
2021/07/06 01:59:21;;;;;;;2.25;1.38;;;;;;;17.22;76.22;98746.06;4977590;28;20035;-67
2021/07/06 02:01:47;;;;;;;4.32;1.95;;;;;;;17.22;76.34;98744.28;4977721;28;20483;-67
2021/07/06 02:04:14;;;;;;;3.97;2.10;;;;;;;17.23;76.22;98739.91;4977692;28;20469;-67
2021/07/06 02:06:43;;;;;;;5.30;1.80;;;;;;;17.23;76.15;98737.28;4978283;28;20494;-67
2021/07/06 02:09:12;;;;;;;2.13;1.63;;;;;;;17.23;76.21;98734.69;4977866;28;20045;-67
2021/07/06 02:11:42;;;;;;;4.63;1.55;;;;;;;17.21;76.28;98732.09;4960291;28;20545;-66
2021/07/06 02:14:08;;;;;;;4.60;1.73;;;;;;;17.22;76.33;98718.09;4976661;28;20133;-66
2021/07/06 02:16:37;;;;;;;3.00;1.70;;;;;;;17.22;76.30;98712.03;4977401;28;20114;-66
2021/07/06 02:19:05;;;;;;;1.77;1.50;;;;;;;17.22;76.39;98723.34;4960723;28;20030;-66
2021/07/06 02:21:30;;;;;;;7.40;1.75;;;;;;;17.22;76.17;98705.00;4976408;28;20038;-66
2021/07/06 02:23:56;;;;;;;5.03;1.40;;;;;;;17.22;76.07;98698.94;4977763;28;20042;-66
2021/07/06 02:26:24;;;;;;;2.95;1.48;;;;;;;17.22;76.18;98709.41;4977126;28;20070;-66
2021/07/06 02:28:50;;;;;;;7.13;2.08;;;;;;;17.21;76.24;98700.69;4976303;28;20042;-68
2021/07/06 02:31:15;;;;;;;3.45;1.73;;;;;;;17.20;76.21;98688.53;4975901;28;20039;-67
2021/07/06 02:33:43;;;;;;;6.90;1.90;;;;;;;17.22;76.29;98668.34;4975816;28;20096;-66
2021/07/06 02:36:09;;;;;;;2.97;1.48;;;;;;;17.22;76.11;98665.75;4977265;28;20043;-68
2021/07/06 02:38:39;;;;;;;3.15;1.80;;;;;;;17.21;76.09;98664.03;4976190;28;20035;-67
2021/07/06 02:41:07;;;;;;;2.83;1.40;;;;;;;17.20;76.01;98657.09;4977123;28;20086;-67
2021/07/06 02:43:36;;;;;;;1.90;1.70;;;;;;;17.20;76.18;98662.34;4976726;28;20082;-68
2021/07/06 02:46:07;;;;;;;2.05;1.52;;;;;;;17.20;75.98;98672.81;4976257;28;20446;-67
2021/07/06 02:48:34;;;;;;;5.97;1.85;;;;;;;17.21;76.17;98661.41;4977679;28;20475;-67
2021/07/06 02:50:59;;;;;;;3.95;1.80;;;;;;;17.20;75.98;98668.41;4977392;28;20043;-67
2021/07/06 02:53:27;;;;;;;2.25;1.55;;;;;;;17.20;76.24;98657.09;4977267;28;20537;-68
2021/07/06 02:55:58;;;;;;;3.40;1.77;;;;;;;17.22;76.00;98659.66;4976874;28;20042;-67
2021/07/06 02:58:27;;;;;;;4.25;2.30;;;;;;;17.20;76.21;98657.94;4976685;28;20094;-67
2021/07/06 03:00:56;;;;;;;5.15;1.60;;;;;;;17.22;76.10;98639.56;4975086;28;20057;-67
2021/07/06 03:03:27;;;;;;;4.15;1.92;;;;;;;17.23;76.04;98611.63;4977279;28;20130;-67
2021/07/06 03:05:57;;;;;;;3.45;1.83;;;;;;;17.22;75.97;98616.00;4977146;28;20042;-67
2021/07/06 03:08:25;;;;;;;3.75;1.77;;;;;;;17.24;76.17;98629.06;4975567;28;20070;-67
2021/07/06 03:10:52;;;;;;;3.83;2.35;;;;;;;17.22;76.13;98608.16;4976698;28;20082;-66
2021/07/06 03:13:18;;;;;;;5.18;2.13;;;;;;;17.22;76.04;98607.31;4975286;28;20047;-68
2021/07/06 03:15:46;;;;;;;2.40;1.80;;;;;;;17.22;76.14;98609.94;4976639;28;20053;-68
2021/07/06 03:18:12;;;;;;;3.30;2.15;;;;;;;17.22;76.12;98602.91;4976893;28;20041;-67
2021/07/06 03:20:38;;;;;;;4.00;1.80;;;;;;;17.23;76.10;98611.63;4975384;28;20043;-67
2021/07/06 03:23:07;;;;;;;5.63;1.65;;;;;;;17.23;76.08;98609.03;4976258;28;20031;-68
2021/07/06 03:25:37;;;;;;;3.13;2.08;;;;;;;17.23;76.05;98604.63;4975226;28;20050;-67
2021/07/06 03:28:05;;;;;;;2.37;1.80;;;;;;;17.23;76.11;98604.63;4975833;28;20097;-67
2021/07/06 03:30:36;;;;;;;4.65;2.13;;;;;;;17.24;76.16;98585.38;4976158;28;20277;-68
2021/07/06 03:33:07;;;;;;;4.13;2.05;;;;;;;17.24;76.06;98589.78;4975840;28;20039;-68
2021/07/06 03:35:36;;;;;;;5.32;2.25;;;;;;;17.24;75.95;98601.09;4976578;28;20548;-68
2021/07/06 03:38:02;;;;;;;5.30;1.80;;;;;;;17.25;76.02;98589.72;4974565;28;20066;-67
2021/07/06 03:40:31;;;;;;;3.92;1.90;;;;;;;17.26;76.12;98574.88;4976437;28;20074;-67
2021/07/06 03:42:57;;;;;;;5.35;2.20;;;;;;;17.26;76.02;98580.97;4976169;28;20545;-67
2021/07/06 03:45:33;;;;;;;2.88;1.92;;;;;;;17.27;76.17;98601.00;4976170;28;20117;-67
2021/07/06 03:48:01;;;;;;;3.33;1.98;;;;;;;17.28;76.09;98596.63;4975053;28;20471;-68
2021/07/06 03:50:27;;;;;;;3.35;2.10;;;;;;;17.30;76.02;98610.50;4975806;28;20093;-67
2021/07/06 03:52:58;;;;;;;3.50;2.47;;;;;;;17.29;76.05;98628.00;4976156;28;20058;-67
2021/07/06 03:55:26;;;;;;;7.25;2.47;;;;;;;17.30;76.06;98619.22;4975179;28;20030;-66
2021/07/06 03:57:53;;;;;;;4.32;2.30;;;;;;;17.31;76.05;98623.56;4974916;28;20089;-66
2021/07/06 04:00:25;;;;;;;4.13;2.17;;;;;;;17.31;76.18;98641.88;4974656;28;20046;-67
2021/07/06 04:02:51;;;;;;;5.35;2.40;;;;;;;17.32;76.09;98612.19;4975703;28;20047;-67
2021/07/06 04:05:17;;;;;;;2.78;2.00;;;;;;;17.33;76.13;98599.94;4974504;28;20045;-67
2021/07/06 04:07:45;;;;;;;3.47;2.30;;;;;;;17.34;76.10;98630.44;4959048;28;20118;-67
2021/07/06 04:10:16;;;;;;;5.57;2.45;;;;;;;17.34;76.10;98675.81;4975365;28;20089;-67
2021/07/06 04:12:46;;;;;;;8.38;2.40;;;;;;;17.35;76.35;98687.16;4958358;28;20454;-67
2021/07/06 04:15:13;;;;;;;3.22;2.47;;;;;;;17.37;76.12;98702.78;4974215;28;20387;-68
2021/07/06 04:17:40;;;;;;;5.53;2.72;;;;;;;17.36;76.38;98730.75;4958165;28;20406;-68
2021/07/06 04:20:11;;;;;;;9.38;2.70;;;;;;;17.37;76.29;98745.56;4973975;28;20082;-66
2021/07/06 04:22:39;;;;;;;2.17;1.88;;;;;;;17.38;76.22;98723.72;4974895;28;20034;-67
2021/07/06 04:25:06;;;;;;;6.75;2.08;;;;;;;17.39;76.32;98746.38;4975011;28;20063;-67
2021/07/06 04:27:35;;;;;;;2.90;2.17;;;;;;;17.40;76.31;98762.91;4973897;28;20516;-68
2021/07/06 04:30:03;;;;;;;4.65;2.40;;;;;;;17.40;76.07;98771.66;4975088;28;20046;-67
2021/07/06 04:32:34;;;;;;;4.10;2.30;;;;;;;17.42;76.44;98779.44;4973575;28;20157;-67
2021/07/06 04:35:05;;;;;;;3.47;2.50;;;;;;;17.42;76.43;98782.06;4973805;28;20066;-69
2021/07/06 04:37:37;;;;;;;4.45;2.50;;;;;;;17.43;76.68;98779.41;4973459;28;20046;-68
2021/07/06 04:40:05;;;;;;;4.43;2.78;;;;;;;17.45;76.48;98761.88;4975380;28;20090;-69
2021/07/06 04:42:33;;;;;;;4.15;2.30;;;;;;;17.45;76.58;98726.97;4975180;28;20047;-70
2021/07/06 04:45:04;;;;;;;5.88;2.67;;;;;;;17.44;76.49;98655.41;4974530;28;20034;-69
2021/07/06 04:47:32;;;;;;;5.38;2.97;;;;;;;17.44;76.72;98680.75;4973560;28;20058;-70
2021/07/06 04:50:01;;;;;;;5.50;2.70;;;;;;;17.42;76.75;98712.22;4957955;28;20097;-71
2021/07/06 04:52:27;;;;;;;4.75;2.70;;;;;;;17.43;76.61;98750.59;4974689;28;20093;-71
2021/07/06 04:54:56;;;;;;;3.88;2.25;;;;;;;17.43;77.00;98745.38;4973752;28;20137;-68
2021/07/06 04:57:24;;;;;;;6.43;2.30;;;;;;;17.42;76.85;98738.41;4973372;28;20542;-69
2021/07/06 04:59:58;;;;;;;4.45;2.63;;;;;;;17.43;76.94;98710.47;4975176;28;20041;-68
2021/07/06 05:02:27;;;;;;;4.68;2.35;;;;;;;17.43;76.67;98699.97;4957443;28;20054;-69
2021/07/06 05:04:52;;;;;;;3.58;2.42;;;;;;;17.42;77.02;98698.25;4973364;28;20062;-70
2021/07/06 05:07:21;;;;;;;4.93;2.13;;;;;;;17.42;76.83;98669.47;4974635;28;20035;-69
2021/07/06 05:09:49;;;;;;;4.80;2.10;;;;;;;17.41;76.92;98631.09;4957460;28;20121;-69
2021/07/06 05:12:15;;;;;;;3.63;2.05;;;;;;;17.40;76.82;98650.31;4973011;28;20045;-69
2021/07/06 05:14:46;;;;;;;3.55;2.05;;;;;;;17.41;77.07;98610.13;4974533;28;20494;-68
2021/07/06 05:17:17;;;;;;;5.28;1.70;;;;;;;17.40;76.82;98577.00;4974641;28;20046;-71
2021/07/06 05:19:45;;;;;;;3.70;1.55;;;;;;;17.39;76.73;98606.72;4974729;28;20034;-70
2021/07/06 05:22:16;;;;;;;4.03;1.88;;;;;;;17.38;76.93;98605.00;4974564;28;20088;-69
2021/07/06 05:24:44;;;;;;;2.25;1.85;;;;;;;17.35;76.90;98599.00;4977138;28;20126;-70
2021/07/06 05:27:11;;;;;;;2.00;1.70;;;;;;;17.35;76.91;98596.38;4978565;28;20042;-69
2021/07/06 05:29:40;;;;;;;3.03;1.60;;;;;;;17.34;77.04;98627.81;4978774;28;20031;-70
2021/07/06 05:32:09;;;;;;;1.83;1.30;;;;;;;17.35;76.84;98633.03;4978409;28;20082;-70
2021/07/06 05:34:37;;;;;;;2.45;1.63;;;;;;;17.33;76.80;98634.84;4978296;28;20479;-68
2021/07/06 05:37:05;;;;;;;7.18;1.58;;;;;;;17.33;76.89;98632.22;4978398;28;20039;-68
2021/07/06 05:39:34;;;;;;;3.25;1.42;;;;;;;17.32;76.94;98627.88;4976720;28;20042;-68
2021/07/06 05:42:04;;;;;;;2.22;1.30;;;;;;;17.33;77.05;98660.16;4977267;28;20035;-69
2021/07/06 05:44:32;;;;;;;3.25;1.65;;;;;;;17.32;76.91;98664.53;4978488;28;20031;-68
2021/07/06 05:47:00;;;;;;;3.08;1.85;;;;;;;17.32;76.91;98661.06;4976547;28;20038;-69
2021/07/06 05:49:29;;;;;;;2.13;1.35;;;;;;;17.32;76.97;98661.06;4978458;28;20142;-68
2021/07/06 05:51:57;;;;;;;2.38;1.52;;;;;;;17.31;76.74;98652.34;4977866;28;20125;-68
2021/07/06 05:54:25;;;;;;;1.88;1.33;;;;;;;17.31;76.87;98667.19;4976725;28;20618;-68
2021/07/06 05:56:55;;;;;;;1.63;1.42;;;;;;;17.30;76.88;98682.06;4978118;28;20049;-70
2021/07/06 05:59:23;;;;;;;2.72;1.38;;;;;;;17.29;77.12;98680.34;4976963;28;20049;-69
2021/07/06 06:01:49;;;;;;;2.65;1.70;;;;;;;17.29;76.93;98677.72;4977423;28;20050;-68
2021/07/06 06:04:19;;;;;;;2.33;1.20;;;;;;;17.28;76.87;98670.78;4977838;28;20130;-68
2021/07/06 06:06:48;;;;;;;2.22;1.38;;;;;;;17.28;76.87;98677.81;4960788;28;20085;-70
2021/07/06 06:09:13;;;;;;;3.15;1.38;;;;;;;17.26;76.86;98669.13;4960436;28;20427;-68
2021/07/06 06:11:45;;;;;;;1.00;1.00;;;;;;;17.26;77.04;98696.16;4977862;28;20042;-67
2021/07/06 06:14:16;;;;;;;1.52;1.30;;;;;;;17.27;76.78;98697.03;4976862;28;20043;-68
2021/07/06 06:16:47;;;;;;;2.08;1.55;;;;;;;17.26;76.92;98704.00;4976312;28;20494;-68
2021/07/06 06:19:15;;;;;;;2.80;1.13;;;;;;;17.25;76.92;98710.16;4976316;28;20046;-68
2021/07/06 06:21:43;;;;;;;4.05;1.67;;;;;;;17.27;76.73;98729.28;4977625;28;20046;-68
2021/07/06 06:24:08;;;;;;;1.60;1.27;;;;;;;17.25;76.98;98731.09;4977622;28;20039;-69
2021/07/06 06:26:42;;;;;;;3.40;1.35;;;;;;;17.25;76.97;98738.94;4977457;28;20513;-70
2021/07/06 06:29:08;;;;;;;2.72;1.80;;;;;;;17.26;76.74;98739.81;4977739;28;20109;-68
2021/07/06 06:31:38;;;;;;;4.80;1.63;;;;;;;17.24;76.93;98733.78;4976308;28;20067;-68
2021/07/06 06:34:09;;;;;;;1.33;1.23;;;;;;;17.23;77.05;98740.75;4977648;28;20038;-68
2021/07/06 06:36:39;;;;;;;3.97;1.25;;;;;;;17.22;76.61;98739.03;4960595;28;20043;-67
2021/07/06 06:39:10;;;;;;;1.35;1.20;;;;;;;17.21;76.79;98719.00;4977499;28;20086;-68
2021/07/06 06:41:38;;;;;;;3.47;1.60;;;;;;;17.22;76.69;98751.28;4977264;28;20038;-68
2021/07/06 06:44:04;;;;;;;4.68;1.92;;;;;;;17.22;76.78;98759.97;4975756;28;20065;-68
2021/07/06 06:46:32;;;;;;;2.10;1.23;;;;;;;17.20;76.63;98759.22;4977231;28;20494;-69
2021/07/06 06:49:04;;;;;;;1.90;1.40;;;;;;;17.18;76.54;98756.63;4976045;28;20629;-69
2021/07/06 06:51:32;;;;;;;3.40;1.40;;;;;;;17.16;76.90;98765.44;4975842;28;20054;-69
2021/07/06 06:54:05;;;;;;;1.17;1.08;;;;;;;17.14;76.65;98759.38;4976923;28;20117;-68
2021/07/06 06:56:35;;;;;;;2.13;1.40;;;;;;;17.14;76.43;98773.31;4975981;28;20043;-67
2021/07/06 06:59:06;;;;;;;3.22;1.63;;;;;;;17.11;76.95;98767.31;4976054;28;20038;-70
2021/07/06 07:01:37;;;;;;;4.72;1.70;;;;;;;17.11;76.46;98783.03;4975703;28;21186;-68
2021/07/06 07:04:07;;;;;;;1.13;1.02;;;;;;;17.09;76.47;98774.38;4976852;28;20043;-68
2021/07/06 07:06:35;;;;;;;2.67;1.40;;;;;;;17.08;76.56;98767.41;4976501;28;20126;-69
2021/07/06 07:09:04;;;;;;;2.03;1.67;;;;;;;17.07;76.41;98768.31;4976843;28;20039;-69
2021/07/06 07:11:32;;;;;;;1.50;1.13;;;;;;;17.05;76.46;98779.69;4976531;28;20101;-68
2021/07/06 07:14:01;;;;;;;3.40;1.23;;;;;;;17.05;76.43;98784.94;4977142;28;20078;-69
2021/07/06 07:16:26;;;;;;;1.80;1.38;;;;;;;17.05;76.11;98771.00;4976522;28;20038;-69
2021/07/06 07:18:54;;;;;;;1.92;1.20;;;;;;;17.03;76.54;98786.75;4976839;28;20035;-69
2021/07/06 07:21:20;;;;;;;3.13;1.20;;;;;;;17.03;76.26;98781.53;4975445;28;20038;-68
2021/07/06 07:23:48;;;;;;;2.03;1.42;;;;;;;17.04;76.47;98767.53;4975231;28;20061;-68
2021/07/06 07:26:18;;;;;;;1.25;1.00;;;;;;;17.03;76.17;98773.69;4975603;28;20130;-68
2021/07/06 07:28:51;;;;;;;2.50;1.35;;;;;;;17.04;76.38;98778.00;4975662;28;20472;-68
2021/07/06 07:31:17;;;;;;;1.42;1.30;;;;;;;17.04;76.40;98778.00;4976452;28;20050;-68
2021/07/06 07:33:45;;;;;;;3.05;1.55;;;;;;;17.04;76.40;98785.84;4976473;28;20398;-68
2021/07/06 07:36:11;;;;;;;2.05;1.10;;;;;;;17.05;76.47;98784.09;4974827;28;20086;-67
2021/07/06 07:38:39;;;;;;;1.50;1.30;;;;;;;17.05;76.50;98779.69;4976205;28;20062;-69
2021/07/06 07:41:04;;;;;;;1.45;1.25;;;;;;;17.08;76.38;98785.75;4976007;28;20043;-69
2021/07/06 07:43:33;;;;;;;2.40;1.20;;;;;;;17.07;76.50;98797.97;4976260;28;20035;-68
2021/07/06 07:45:58;;;;;;;2.92;1.60;;;;;;;17.08;76.41;98788.34;4974569;28;20049;-68
2021/07/06 07:48:32;;;;;;;2.58;1.65;;;;;;;17.08;76.40;98777.88;4976079;28;20034;-68
2021/07/06 07:51:01;;;;;;;7.85;1.65;;;;;;;17.08;76.46;98784.00;4975978;28;20035;-67
2021/07/06 07:53:34;;;;;;;1.98;1.10;;;;;;;17.08;76.29;98798.81;4959568;28;20035;-68
2021/07/06 07:56:06;;;;;;;3.60;1.50;;;;;;;17.08;76.43;98781.38;4974953;28;20573;-66
2021/07/06 07:58:36;;;;;;;4.03;1.55;;;;;;;17.07;76.25;98792.75;4976079;28;20048;-68
2021/07/06 08:01:07;;;;;;;1.23;1.13;;;;;;;17.07;76.43;98784.03;4975870;28;20046;-67
2021/07/06 08:03:35;;;;;;;2.65;1.55;;;;;;;17.08;76.43;98788.34;4974246;28;20455;-67
2021/07/06 08:06:04;;;;;;;3.55;1.40;;;;;;;17.09;76.54;98811.00;4975681;28;20093;-67
2021/07/06 08:08:34;;;;;;;1.50;1.27;;;;;;;17.11;76.35;98803.97;4975676;28;20039;-67
2021/07/06 08:11:02;;;;;;;3.22;1.30;;;;;;;17.11;76.27;98814.44;4975858;28;20045;-68
2021/07/06 08:13:33;;;;;;;1.92;1.45;;;;;;;17.12;76.37;98818.78;4974184;28;20031;-69
2021/07/06 08:16:01;;;;;;;6.93;1.63;;;;;;;17.12;76.43;98816.16;4974405;28;20039;-66
2021/07/06 08:18:32;;;;;;;2.42;1.30;;;;;;;17.13;76.30;98815.25;4975252;28;20094;-68
2021/07/06 08:21:01;;;;;;;4.30;1.58;;;;;;;17.12;76.03;98819.66;4974589;28;20129;-69
2021/07/06 08:23:27;;;;;;;1.73;1.10;;;;;;;17.13;76.02;98838.81;4975353;28;20043;-68
2021/07/06 08:25:52;;;;;;;3.60;1.45;;;;;;;17.13;76.08;98820.50;4974327;28;20134;-67
2021/07/06 08:28:26;;;;;;;2.03;1.60;;;;;;;17.15;75.87;98831.78;4973879;28;20031;-68
2021/07/06 08:30:53;;;;;;;2.92;1.70;;;;;;;17.16;76.00;98823.03;4974220;28;20078;-67
2021/07/06 08:33:24;;;;;;;4.13;1.70;;;;;;;17.15;75.84;98829.16;4973926;28;20038;-67
2021/07/06 08:35:50;;;;;;;2.47;1.60;;;;;;;17.16;76.08;98838.72;4957559;28;20042;-67
2021/07/06 08:38:21;;;;;;;5.82;1.70;;;;;;;17.15;75.80;98832.63;4975209;28;20039;-67
2021/07/06 08:40:49;;;;;;;2.42;1.45;;;;;;;17.19;75.96;98825.56;4974681;28;20088;-69
2021/07/06 08:43:18;;;;;;;2.97;1.60;;;;;;;17.19;75.86;98838.66;4973624;28;20031;-68
2021/07/06 08:45:44;;;;;;;3.00;1.42;;;;;;;17.18;75.60;98829.06;4975086;28;20071;-68
2021/07/06 08:48:13;;;;;;;2.75;1.52;;;;;;;17.21;75.90;98855.13;4958118;28;20074;-68
2021/07/06 08:50:41;;;;;;;7.78;1.60;;;;;;;17.20;75.58;98825.50;4974022;28;20082;-67
2021/07/06 08:53:10;;;;;;;6.53;2.35;;;;;;;17.19;75.48;98856.97;4973743;28;20035;-68
2021/07/06 08:55:35;;;;;;;2.08;1.20;;;;;;;17.22;75.36;98829.84;4974875;28;20046;-69
2021/07/06 08:58:03;;;;;;;1.35;1.20;;;;;;;17.19;75.00;98836.03;4972873;28;20027;-67
2021/07/06 09:00:34;;;;;;;3.38;1.55;;;;;;;17.22;75.39;98849.00;4974971;28;20129;-69
2021/07/06 09:03:03;;;;;;;6.38;1.50;;;;;;;17.24;75.19;98855.06;4957227;28;20109;-69
2021/07/06 09:05:34;;;;;;;2.40;1.30;;;;;;;17.26;75.32;98855.03;4974860;28;20042;-67
2021/07/06 09:08:03;;;;;;;5.10;1.70;;;;;;;17.27;75.05;98877.69;4973360;28;20039;-69
2021/07/06 09:10:40;;;;;;;3.53;1.55;;;;;;;17.26;75.01;98861.09;4957353;28;20035;-66
2021/07/06 09:13:24;;;;;;;6.15;1.60;;;;;;;17.25;75.03;98862.00;4973489;28;20035;-69
2021/07/06 09:15:54;;;;;;;3.05;1.50;;;;;;;17.24;75.09;98867.28;4974710;28;20039;-66
2021/07/06 09:18:21;;;;;;;3.45;1.42;;;;;;;17.25;74.87;98863.78;4974662;28;20049;-67
2021/07/06 09:21:02;;;;;;;3.40;1.45;;;;;;;17.23;75.04;98870.81;4974710;28;20517;-68
2021/07/06 09:23:34;;;;;;;3.33;1.50;;;;;;;17.21;74.83;98876.06;4958055;28;20043;-70
2021/07/06 09:26:24;;;;;;;3.60;1.80;;;;;;;17.17;74.83;98879.72;4973675;28;20046;-68
2021/07/06 09:29:02;;;;;;;8.52;1.85;;;;;;;17.18;74.78;98884.06;4973509;28;20471;-68
2021/07/06 09:31:32;;;;;;;7.28;1.90;;;;;;;17.18;74.93;98890.13;4973015;28;20038;-69
2021/07/06 09:33:59;;;;;;;5.55;1.65;;;;;;;17.24;74.79;98877.78;4973612;28;20058;-68
2021/07/06 09:36:35;;;;;;;5.20;1.60;;;;;;;17.25;74.39;98889.97;4974552;28;20045;-70
2021/07/06 09:39:05;;;;;;;4.35;1.70;;;;;;;17.26;74.41;98896.91;4973485;28;20042;-68
2021/07/06 09:41:31;;;;;;;3.92;1.45;;;;;;;17.27;74.35;98878.53;4973337;28;20034;-69
2021/07/06 09:44:18;;;;;;;4.97;1.67;;;;;;;17.26;74.49;98876.81;4974334;28;20037;-68
2021/07/06 09:46:52;;;;;;;4.70;1.55;;;;;;;17.27;74.39;98862.81;4973060;28;20054;-67
2021/07/06 09:49:24;;;;;;;7.65;1.48;;;;;;;17.26;74.46;98884.66;4973020;28;20050;-67
2021/07/06 09:51:50;;;;;;;5.03;1.75;;;;;;;17.28;74.35;98893.34;4973363;28;20044;-67
2021/07/06 09:54:32;;;;;;;2.75;1.30;;;;;;;17.29;74.68;98913.38;4972827;28;20042;-68
2021/07/06 09:57:30;;;;;;;5.03;1.95;;;;;;;17.30;74.37;98885.41;4974596;28;20383;-67
2021/07/06 10:00:12;;;;;;;4.85;1.60;;;;;;;17.32;74.11;98878.38;4973353;28;20034;-67
2021/07/06 10:02:39;;;;;;;3.53;1.48;;;;;;;17.33;74.22;98891.44;4972943;28;20383;-67
2021/07/06 10:05:27;;;;;;;6.40;1.67;;;;;;;17.36;74.23;98898.34;4973285;28;20054;-69
2021/07/06 10:07:58;;;;;;;4.78;2.08;;;;;;;17.39;74.03;98887.78;4974510;28;20035;-68
2021/07/06 10:10:27;;;;;;;5.00;1.60;;;;;;;17.40;74.00;98892.13;4976707;28;20038;-68
2021/07/06 10:12:56;;;;;;;5.53;1.50;;;;;;;17.41;74.02;98892.97;4976417;28;20035;-67
2021/07/06 10:15:24;;;;;;;5.25;1.67;;;;;;;17.42;74.05;98898.16;4976513;28;20109;-67
2021/07/06 10:17:53;;;;;;;1.88;1.23;;;;;;;17.42;73.90;98908.66;4977566;28;20537;-68
2021/07/06 10:20:26;;;;;;;4.32;1.70;;;;;;;17.44;73.93;98905.97;4977349;28;20583;-67
2021/07/06 10:22:54;;;;;;;5.45;1.75;;;;;;;17.43;73.77;98889.41;4976494;28;20074;-67
2021/07/06 10:25:33;;;;;;;3.92;1.70;;;;;;;17.43;73.78;98899.00;4976127;28;20495;-68
2021/07/06 10:28:04;;;;;;;5.47;1.83;;;;;;;17.44;73.68;98947.88;4976489;28;20513;-69
2021/07/06 10:30:38;;;;;;;4.20;1.67;;;;;;;17.43;73.63;98909.50;4976903;28;20403;-67
2021/07/06 10:33:13;;;;;;;3.38;1.58;;;;;;;17.43;73.88;98922.59;4976258;28;20042;-67
2021/07/06 10:35:46;;;;;;;3.30;1.30;;;;;;;17.43;73.59;98919.97;4976328;28;20041;-70
2021/07/06 10:38:33;;;;;;;5.00;1.40;;;;;;;17.42;73.71;98926.97;4959840;28;20039;-69
2021/07/06 10:41:06;;;;;;;4.95;1.85;;;;;;;17.46;73.68;98930.34;4977709;28;20553;-68
2021/07/06 10:43:38;;;;;;;3.67;1.92;;;;;;;17.46;73.62;98941.66;4977280;28;20431;-67
2021/07/06 10:46:19;;;;;;;6.85;1.95;;;;;;;17.45;73.57;98934.72;4977195;28;20079;-68
2021/07/06 10:48:49;;;;;;;5.07;1.85;;;;;;;17.46;73.38;98930.34;4975897;28;20043;-67
2021/07/06 10:51:37;;;;;;;5.13;2.00;;;;;;;17.45;73.47;98928.63;4976644;28;20383;-65
2021/07/06 10:54:18;;;;;;;4.28;1.92;;;;;;;17.46;73.54;98930.34;4975961;28;20065;-66
2021/07/06 10:56:43;;;;;;;6.38;2.25;;;;;;;17.45;73.28;98939.13;4976568;28;20066;-65
2021/07/06 10:59:24;;;;;;;8.32;1.67;;;;;;;17.44;73.36;98935.63;4975603;28;20120;-65
2021/07/06 11:01:57;;;;;;;3.92;1.70;;;;;;;17.44;73.26;98955.72;4977190;28;20054;-65
2021/07/06 11:04:49;;;;;;;9.13;2.53;;;;;;;17.42;73.22;98953.16;4975936;28;20142;-66
2021/07/06 11:07:34;;;;;;;4.90;2.75;;;;;;;17.43;73.19;98972.34;4976968;28;20313;-69
2021/07/06 11:10:07;;;;;;;2.40;1.40;;;;;;;17.42;73.27;98968.00;4976359;28;20042;-67
2021/07/06 11:12:41;;;;;;;7.05;2.05;;;;;;;17.40;73.35;98973.31;4975422;28;20073;-66
2021/07/06 11:15:13;;;;;;;2.78;1.75;;;;;;;17.42;73.24;98957.53;4977028;28;20097;-69
2021/07/06 11:17:47;;;;;;;4.45;1.80;;;;;;;17.44;73.22;98960.97;4975518;28;20066;-67
2021/07/06 11:20:15;;;;;;;9.07;2.03;;;;;;;17.45;72.99;98953.06;4974866;28;20035;-68
2021/07/06 11:22:48;;;;;;;4.38;1.80;;;;;;;17.46;73.08;98962.63;4976405;28;20479;-65
2021/07/06 11:25:27;;;;;;;6.00;1.83;;;;;;;17.46;73.02;98967.84;4976893;28;20081;-67
2021/07/06 11:28:04;;;;;;;6.75;1.90;;;;;;;17.46;73.30;98974.88;4976599;28;20090;-67
2021/07/06 11:30:36;;;;;;;7.75;1.95;;;;;;;17.47;72.94;98969.59;4976283;28;20066;-66
2021/07/06 11:33:09;;;;;;;5.30;1.90;;;;;;;17.46;72.91;98977.50;4974884;28;20038;-67
2021/07/06 11:35:43;;;;;;;8.73;2.20;;;;;;;17.47;72.78;98973.97;4976204;28;20409;-67
2021/07/06 11:38:17;;;;;;;4.07;1.60;;;;;;;17.45;72.79;98981.84;4975007;28;20294;-66
2021/07/06 11:40:45;;;;;;;6.68;1.88;;;;;;;17.44;72.71;98984.53;4976261;28;20493;-66
2021/07/06 11:43:14;;;;;;;7.35;2.10;;;;;;;17.44;72.45;98989.78;4976087;28;20101;-65
2021/07/06 11:45:41;;;;;;;7.75;2.17;;;;;;;17.44;72.72;99000.25;4976103;28;20042;-65